Time;durP1;ratioP1;P1;durP2;ratioP2;P2;SDS_P1;SDS_P2;PMS_P1;PMS_P2;Temp;Humidity;BMP_temperature;BMP_pressure;BME280_temperature;BME280_humidity;BME280_pressure;Samples;Min_cycle;Max_cycle;Signal;HPM_P1;HPM_P2
2021/09/13 00:00:51;;;;;;;11.68;8.63;;;11.50;99.90;;;;;;4189058;28;20025;-72
2021/09/13 00:02:51;;;;;;;15.30;9.73;;;11.40;99.90;;;;;;4194569;28;20033;-72
2021/09/13 00:04:52;;;;;;;21.40;10.30;;;11.40;99.90;;;;;;4190015;28;20033;-72
2021/09/13 00:06:52;;;;;;;16.52;8.50;;;11.40;99.90;;;;;;4192747;28;20090;-71
2021/09/13 00:08:53;;;;;;;16.48;9.65;;;11.40;99.90;;;;;;4193112;28;20028;-71
2021/09/13 00:10:53;;;;;;;16.38;8.85;;;11.40;99.90;;;;;;4196333;28;20036;-71
2021/09/13 00:12:54;;;;;;;15.25;8.82;;;11.40;99.90;;;;;;4197576;28;20032;-70
2021/09/13 00:14:55;;;;;;;14.48;8.57;;;11.40;99.90;;;;;;4194784;28;20342;-70
2021/09/13 00:16:55;;;;;;;16.38;10.25;;;11.30;99.90;;;;;;4196940;28;20488;-71
2021/09/13 00:18:56;;;;;;;13.63;8.82;;;11.30;99.90;;;;;;4192386;28;20037;-71
2021/09/13 00:20:57;;;;;;;19.92;10.65;;;11.30;99.90;;;;;;4196386;28;20082;-71
2021/09/13 00:22:58;;;;;;;19.45;9.32;;;11.40;99.90;;;;;;4192743;28;20024;-71
2021/09/13 00:24:59;;;;;;;13.57;9.57;;;11.40;99.90;;;;;;4195869;28;20052;-71
2021/09/13 00:26:59;;;;;;;13.90;8.27;;;11.40;99.90;;;;;;4194256;28;20032;-70
2021/09/13 00:29:00;;;;;;;14.30;10.18;;;11.30;99.90;;;;;;4196569;28;20078;-71
2021/09/13 00:31:01;;;;;;;16.52;9.70;;;11.30;99.90;;;;;;4193003;28;20345;-73
2021/09/13 00:33:01;;;;;;;18.63;10.43;;;11.20;99.90;;;;;;4195569;28;20071;-71
2021/09/13 00:35:02;;;;;;;16.75;9.55;;;11.30;99.90;;;;;;4193181;28;20381;-73
2021/09/13 00:37:04;;;;;;;18.17;10.38;;;11.30;99.90;;;;;;4203769;28;20083;-71
2021/09/13 00:39:04;;;;;;;15.93;10.35;;;11.30;99.90;;;;;;4194427;28;20029;-71
2021/09/13 00:41:05;;;;;;;11.55;8.82;;;11.20;99.90;;;;;;4198488;28;20031;-71
2021/09/13 00:43:06;;;;;;;19.20;10.00;;;11.20;99.90;;;;;;4190596;28;20128;-72
2021/09/13 00:45:07;;;;;;;21.88;9.48;;;11.10;99.90;;;;;;4203465;28;20032;-71
2021/09/13 00:47:07;;;;;;;19.00;9.80;;;11.20;99.90;;;;;;4192548;28;20053;-71
2021/09/13 00:49:08;;;;;;;20.98;11.05;;;11.20;99.90;;;;;;4195161;28;20120;-72
2021/09/13 00:51:09;;;;;;;16.88;10.70;;;11.10;99.90;;;;;;4191688;28;20067;-72
2021/09/13 00:53:10;;;;;;;17.30;9.65;;;11.10;99.90;;;;;;4200138;28;20041;-72
2021/09/13 00:55:10;;;;;;;15.38;9.65;;;11.00;99.90;;;;;;4196279;28;20680;-72
2021/09/13 00:57:11;;;;;;;22.95;9.90;;;11.00;99.90;;;;;;4197734;28;20037;-72
2021/09/13 00:59:12;;;;;;;15.00;9.73;;;10.90;99.90;;;;;;4193275;28;20508;-72
2021/09/13 01:01:13;;;;;;;13.30;8.57;;;10.90;99.90;;;;;;4197073;28;20552;-72
2021/09/13 01:03:13;;;;;;;14.02;9.48;;;10.80;99.90;;;;;;4191747;28;20033;-72
2021/09/13 01:05:14;;;;;;;13.23;8.55;;;10.80;99.90;;;;;;4196227;28;20047;-72
2021/09/13 01:07:16;;;;;;;12.07;9.13;;;10.70;99.90;;;;;;4195181;28;20143;-72
2021/09/13 01:09:16;;;;;;;16.35;8.70;;;10.80;99.90;;;;;;4198302;28;20055;-72
2021/09/13 01:11:17;;;;;;;11.70;7.72;;;10.70;99.90;;;;;;4192481;28;20388;-72
2021/09/13 01:13:18;;;;;;;12.25;8.73;;;10.60;99.90;;;;;;4193142;28;20033;-72
2021/09/13 01:15:19;;;;;;;13.48;8.90;;;10.60;99.90;;;;;;4194896;28;20121;-72
2021/09/13 01:17:20;;;;;;;16.85;9.48;;;10.60;99.90;;;;;;4197470;28;20040;-72
2021/09/13 01:19:20;;;;;;;16.02;9.02;;;10.60;99.90;;;;;;4182808;28;20033;-71
2021/09/13 01:21:22;;;;;;;15.30;7.85;;;10.50;99.90;;;;;;4195907;28;20047;-72
2021/09/13 01:23:28;;;;;;;13.40;8.95;;;10.50;99.90;;;;;;4191637;28;20050;-71
2021/09/13 01:25:28;;;;;;;14.02;8.55;;;10.40;99.90;;;;;;4195904;28;20028;-70
2021/09/13 01:27:29;;;;;;;9.90;8.23;;;10.40;99.90;;;;;;4193595;28;20677;-71
2021/09/13 01:29:30;;;;;;;11.45;7.90;;;10.40;99.90;;;;;;4195315;28;20423;-71
2021/09/13 01:31:31;;;;;;;13.35;8.32;;;10.40;99.90;;;;;;4191479;28;20029;-71
2021/09/13 01:33:32;;;;;;;13.25;8.20;;;10.40;99.90;;;;;;4196926;28;20111;-72
2021/09/13 01:35:32;;;;;;;13.13;7.97;;;10.40;99.90;;;;;;4193249;28;20036;-73
2021/09/13 01:37:33;;;;;;;11.98;7.90;;;10.30;99.90;;;;;;4195518;28;20376;-72
2021/09/13 01:39:33;;;;;;;12.55;8.70;;;10.30;99.90;;;;;;4195120;28;20392;-72
2021/09/13 01:41:34;;;;;;;18.13;8.50;;;10.30;99.90;;;;;;4194832;28;20440;-71
2021/09/13 01:43:35;;;;;;;12.85;8.57;;;10.20;99.90;;;;;;4199308;28;20043;-71
2021/09/13 01:45:35;;;;;;;16.05;8.75;;;10.20;99.90;;;;;;4197325;28;20048;-72
2021/09/13 01:47:36;;;;;;;15.20;8.73;;;10.20;99.90;;;;;;4189454;28;20091;-71
2021/09/13 01:49:36;;;;;;;18.42;9.43;;;10.30;99.90;;;;;;4196409;28;20052;-71
2021/09/13 01:51:38;;;;;;;14.90;9.13;;;10.30;99.90;;;;;;4194652;28;20166;-72
2021/09/13 01:53:39;;;;;;;16.38;8.98;;;10.30;99.90;;;;;;4194915;28;20067;-72
2021/09/13 01:55:40;;;;;;;11.30;7.93;;;10.30;99.90;;;;;;4190581;28;20045;-71
2021/09/13 01:57:41;;;;;;;14.73;9.15;;;10.20;99.90;;;;;;4196154;28;20128;-71
2021/09/13 01:59:41;;;;;;;12.23;8.23;;;10.20;99.90;;;;;;4189095;28;20028;-71
2021/09/13 02:01:42;;;;;;;14.43;9.13;;;10.20;99.90;;;;;;4195870;28;20526;-71
2021/09/13 02:03:42;;;;;;;18.13;9.27;;;10.20;99.90;;;;;;4193829;28;20380;-71
2021/09/13 02:05:43;;;;;;;17.63;8.68;;;10.20;99.90;;;;;;4185702;28;20150;-71
2021/09/13 02:07:43;;;;;;;14.90;8.68;;;10.20;99.90;;;;;;4192840;28;20418;-71
2021/09/13 02:09:44;;;;;;;14.75;8.73;;;10.20;99.90;;;;;;4196269;28;20039;-71
2021/09/13 02:11:45;;;;;;;13.95;9.05;;;10.20;99.90;;;;;;4188905;28;20524;-71
2021/09/13 02:13:45;;;;;;;13.35;9.90;;;10.20;99.90;;;;;;4195901;28;20055;-70
2021/09/13 02:15:46;;;;;;;15.07;9.05;;;10.10;99.90;;;;;;4195194;28;20032;-70
2021/09/13 02:17:47;;;;;;;16.63;9.25;;;10.10;99.90;;;;;;4195918;28;20044;-71
2021/09/13 02:19:48;;;;;;;19.25;10.18;;;10.10;99.90;;;;;;4189149;28;20384;-71
2021/09/13 02:21:49;;;;;;;16.40;9.23;;;10.10;99.90;;;;;;4195880;28;20052;-72
2021/09/13 02:23:49;;;;;;;16.80;8.77;;;10.10;99.90;;;;;;4187416;28;20033;-71
2021/09/13 02:25:50;;;;;;;18.50;10.20;;;10.10;99.90;;;;;;4195878;28;20483;-71
2021/09/13 02:27:51;;;;;;;12.57;8.07;;;10.20;99.90;;;;;;4193920;28;20518;-71
2021/09/13 02:29:51;;;;;;;12.32;7.65;;;10.10;99.90;;;;;;4193963;28;20044;-72
2021/09/13 02:31:52;;;;;;;14.05;9.13;;;10.10;99.90;;;;;;4188127;28;20028;-72
2021/09/13 02:33:53;;;;;;;15.45;8.80;;;10.00;99.90;;;;;;4194156;28;20132;-72
2021/09/13 02:35:53;;;;;;;11.75;8.70;;;10.00;99.90;;;;;;4185066;28;20419;-71
2021/09/13 02:37:54;;;;;;;18.48;10.50;;;10.00;99.90;;;;;;4191924;28;20033;-72
2021/09/13 02:39:55;;;;;;;16.60;10.45;;;9.90;99.90;;;;;;4186770;28;20538;-71
2021/09/13 02:41:56;;;;;;;19.00;10.45;;;10.00;99.90;;;;;;4193163;28;20033;-72
2021/09/13 02:43:57;;;;;;;21.98;10.90;;;10.00;99.90;;;;;;4194670;28;20064;-71
2021/09/13 02:45:57;;;;;;;19.05;11.85;;;10.10;99.90;;;;;;4196489;28;20036;-71
2021/09/13 02:47:58;;;;;;;16.67;9.48;;;10.10;99.90;;;;;;4193333;28;20040;-70
2021/09/13 02:49:58;;;;;;;13.73;9.27;;;10.00;99.90;;;;;;4195326;28;20107;-71
2021/09/13 02:51:59;;;;;;;15.65;9.52;;;10.00;99.90;;;;;;4192508;28;20047;-71
2021/09/13 02:53:59;;;;;;;16.05;10.02;;;10.00;99.90;;;;;;4193730;28;20127;-72
2021/09/13 02:56:00;;;;;;;16.42;10.07;;;10.00;99.90;;;;;;4193199;28;20032;-71
2021/09/13 02:58:01;;;;;;;15.10;10.02;;;10.00;99.90;;;;;;4195304;28;20045;-72
2021/09/13 03:00:03;;;;;;;21.98;10.48;;;10.00;99.90;;;;;;4192186;28;20048;-73
2021/09/13 03:02:04;;;;;;;13.68;10.05;;;10.00;99.90;;;;;;4193549;28;20395;-72
2021/09/13 03:04:05;;;;;;;16.48;9.85;;;10.00;99.90;;;;;;4191731;28;20031;-72
2021/09/13 03:06:06;;;;;;;18.27;10.38;;;10.00;99.90;;;;;;4193896;28;20040;-72
2021/09/13 03:08:06;;;;;;;12.95;9.80;;;10.00;99.90;;;;;;4191418;28;20028;-72
2021/09/13 03:10:08;;;;;;;22.58;10.60;;;10.00;99.90;;;;;;4195097;28;20067;-72
2021/09/13 03:12:10;;;;;;;12.50;9.15;;;10.00;99.90;;;;;;4192207;28;20027;-72
2021/09/13 03:14:10;;;;;;;12.60;8.30;;;9.90;99.90;;;;;;4189716;28;20044;-72
2021/09/13 03:16:11;;;;;;;12.60;9.13;;;9.90;99.90;;;;;;4190741;28;20040;-71
2021/09/13 03:18:12;;;;;;;12.13;9.07;;;9.90;99.90;;;;;;4194643;28;20066;-72
2021/09/13 03:20:13;;;;;;;12.10;9.73;;;9.90;99.90;;;;;;4191579;28;20380;-71
2021/09/13 03:22:14;;;;;;;12.98;8.50;;;9.90;99.90;;;;;;4194515;28;20551;-72
2021/09/13 03:24:14;;;;;;;12.40;8.95;;;9.80;99.90;;;;;;4193660;28;20033;-71
2021/09/13 03:26:15;;;;;;;10.73;9.00;;;9.80;99.90;;;;;;4186804;28;20029;-71
2021/09/13 03:28:15;;;;;;;11.73;8.15;;;9.80;99.90;;;;;;4191917;28;20028;-72
2021/09/13 03:30:16;;;;;;;10.88;8.82;;;9.90;99.90;;;;;;4193289;28;20291;-70
2021/09/13 03:32:17;;;;;;;10.95;8.35;;;9.80;99.90;;;;;;4189919;28;20036;-71
2021/09/13 03:34:18;;;;;;;10.80;8.57;;;9.90;99.90;;;;;;4194581;28;20102;-71
2021/09/13 03:36:18;;;;;;;8.82;7.32;;;9.90;99.90;;;;;;4193579;28;20044;-72
2021/09/13 03:38:19;;;;;;;9.40;7.32;;;9.90;99.90;;;;;;4194700;28;20380;-72
2021/09/13 03:40:20;;;;;;;10.18;8.27;;;9.90;99.90;;;;;;4193433;28;20033;-72
2021/09/13 03:42:20;;;;;;;11.88;9.75;;;10.00;99.90;;;;;;4194494;28;20036;-71
2021/09/13 03:44:21;;;;;;;10.43;8.02;;;10.10;99.90;;;;;;4203378;28;20036;-71
2021/09/13 03:46:21;;;;;;;11.07;9.10;;;10.10;99.90;;;;;;4200035;28;20051;-72
2021/09/13 03:48:22;;;;;;;9.85;8.73;;;10.20;99.90;;;;;;4189626;28;20028;-72
2021/09/13 03:50:23;;;;;;;11.40;8.95;;;10.30;99.90;;;;;;4196206;28;20032;-71
2021/09/13 03:52:24;;;;;;;11.30;9.18;;;10.40;99.90;;;;;;4197165;28;20033;-71
2021/09/13 03:54:25;;;;;;;13.85;10.55;;;10.40;99.90;;;;;;4196134;28;20028;-71
2021/09/13 03:56:25;;;;;;;10.90;8.52;;;10.40;99.90;;;;;;4197594;28;20028;-71
2021/09/13 03:58:25;;;;;;;11.13;9.35;;;10.30;99.90;;;;;;4197838;28;20031;-71
2021/09/13 04:00:26;;;;;;;9.40;7.97;;;10.30;99.90;;;;;;4190139;28;20101;-71
2021/09/13 04:02:27;;;;;;;11.88;6.95;;;10.30;99.90;;;;;;4197548;28;20028;-71
2021/09/13 04:04:29;;;;;;;13.30;10.07;;;10.20;99.90;;;;;;4195617;28;20029;-71
2021/09/13 04:08:46;;;;;;;13.82;9.40;;;10.10;99.90;;;;;;4197806;28;20020;-70
2021/09/13 04:11:04;;;;;;;9.18;7.78;;;10.10;99.90;;;;;;4194523;28;20035;-71
2021/09/13 04:13:04;;;;;;;8.57;6.82;;;10.10;99.90;;;;;;4196668;28;20556;-71
2021/09/13 04:15:06;;;;;;;10.55;8.20;;;10.10;99.90;;;;;;4196942;28;20028;-72
2021/09/13 04:17:06;;;;;;;10.43;9.15;;;10.10;99.90;;;;;;4197992;28;20040;-72
2021/09/13 04:19:07;;;;;;;9.68;8.50;;;10.10;99.90;;;;;;4194892;28;20052;-72
2021/09/13 04:21:08;;;;;;;13.65;9.90;;;10.20;99.90;;;;;;4198677;28;20040;-72
2021/09/13 04:23:08;;;;;;;10.77;8.85;;;10.20;99.90;;;;;;4192782;28;20123;-71
2021/09/13 04:25:09;;;;;;;12.30;8.50;;;10.30;99.90;;;;;;4198454;28;20029;-71
2021/09/13 04:27:10;;;;;;;12.32;9.27;;;10.40;99.90;;;;;;4194926;28;20154;-72
2021/09/13 04:29:11;;;;;;;17.50;11.02;;;10.50;99.90;;;;;;4196763;28;20029;-71
2021/09/13 04:31:11;;;;;;;15.70;10.82;;;10.60;99.90;;;;;;4196401;28;20051;-71
2021/09/13 04:33:13;;;;;;;11.35;10.05;;;10.70;99.90;;;;;;4196378;28;20150;-71
2021/09/13 04:35:13;;;;;;;16.38;10.52;;;10.80;99.90;;;;;;4193668;28;20123;-71
2021/09/13 04:37:14;;;;;;;15.75;11.18;;;10.80;99.90;;;;;;4194585;28;20037;-71
2021/09/13 04:39:14;;;;;;;12.55;10.43;;;10.90;99.90;;;;;;4195565;28;20468;-71
2021/09/13 04:41:15;;;;;;;18.13;12.00;;;10.90;99.90;;;;;;4196440;28;20036;-72
2021/09/13 04:43:16;;;;;;;15.30;11.60;;;10.90;99.90;;;;;;4196875;28;20127;-72
2021/09/13 04:45:17;;;;;;;12.63;10.82;;;11.00;99.90;;;;;;4194752;28;20032;-72
2021/09/13 04:47:17;;;;;;;14.30;10.00;;;11.00;99.90;;;;;;4194844;28;20082;-71
2021/09/13 04:49:20;;;;;;;16.38;11.80;;;11.10;99.90;;;;;;4197870;28;20099;-72
2021/09/13 04:51:20;;;;;;;14.68;11.40;;;11.20;99.90;;;;;;4196932;28;20025;-71
2021/09/13 04:53:21;;;;;;;17.45;12.23;;;11.20;99.90;;;;;;4188907;28;20056;-71
2021/09/13 04:55:22;;;;;;;17.20;12.13;;;11.30;99.90;;;;;;4193402;28;20078;-71
2021/09/13 04:57:23;;;;;;;17.58;11.95;;;11.30;99.90;;;;;;4189082;28;20028;-71
2021/09/13 04:59:23;;;;;;;15.25;11.90;;;11.40;99.90;;;;;;4193145;28;20059;-72
2021/09/13 05:01:24;;;;;;;18.85;13.32;;;11.40;99.90;;;;;;4192292;28;20041;-72
2021/09/13 05:03:24;;;;;;;14.82;10.63;;;11.40;99.90;;;;;;4192049;28;20031;-72
2021/09/13 05:05:25;;;;;;;15.55;11.30;;;11.40;99.90;;;;;;4189078;28;20050;-72
2021/09/13 05:07:27;;;;;;;20.88;11.77;;;11.40;99.90;;;;;;4193204;28;20611;-72
2021/09/13 05:09:28;;;;;;;16.73;11.35;;;11.40;99.90;;;;;;4186122;28;20452;-72
2021/09/13 05:11:28;;;;;;;15.82;10.68;;;11.40;99.90;;;;;;4194564;28;20048;-72
2021/09/13 05:13:29;;;;;;;14.02;9.90;;;11.30;99.90;;;;;;4189720;28;20945;-72
2021/09/13 05:15:29;;;;;;;15.60;10.10;;;11.30;99.90;;;;;;4191117;28;20048;-72
2021/09/13 05:17:30;;;;;;;19.58;11.95;;;11.40;99.90;;;;;;4195100;28;20048;-72
2021/09/13 05:19:31;;;;;;;17.02;11.85;;;11.40;99.90;;;;;;4196608;28;20052;-71
2021/09/13 05:21:37;;;;;;;18.02;12.50;;;11.40;99.90;;;;;;4196783;28;20040;-70
2021/09/13 05:23:38;;;;;;;20.80;11.65;;;11.40;99.90;;;;;;4195296;28;20114;-71
2021/09/13 05:25:39;;;;;;;17.08;10.98;;;11.50;99.90;;;;;;4186707;28;20037;-71
2021/09/13 05:27:39;;;;;;;19.40;10.10;;;11.50;99.90;;;;;;4193601;28;20040;-71
2021/09/13 05:29:40;;;;;;;17.80;10.23;;;11.60;99.90;;;;;;4192009;28;20564;-71
2021/09/13 05:31:40;;;;;;;16.02;11.30;;;11.60;99.90;;;;;;4194934;28;20021;-71
2021/09/13 05:33:41;;;;;;;109.15;79.05;;;11.60;99.90;;;;;;4193627;28;20633;-71
2021/09/13 05:35:42;;;;;;;50.40;37.30;;;11.60;99.90;;;;;;4193587;28;20029;-71
2021/09/13 05:37:42;;;;;;;28.33;18.73;;;11.60;99.90;;;;;;4187775;28;20465;-72
2021/09/13 05:39:43;;;;;;;22.83;13.30;;;11.50;99.90;;;;;;4193638;28;20029;-72
2021/09/13 05:41:44;;;;;;;22.50;12.30;;;11.50;99.90;;;;;;4193233;28;20041;-71
2021/09/13 05:43:45;;;;;;;18.38;11.30;;;11.50;99.90;;;;;;4190580;28;20045;-71
2021/09/13 05:45:46;;;;;;;16.50;11.35;;;11.50;99.90;;;;;;4192165;28;20036;-71
2021/09/13 05:47:46;;;;;;;32.03;21.25;;;11.60;99.90;;;;;;4191157;28;20044;-71
2021/09/13 05:49:47;;;;;;;23.20;13.82;;;11.60;99.90;;;;;;4196612;28;20368;-71
2021/09/13 05:51:51;;;;;;;20.00;12.10;;;11.60;99.90;;;;;;4193623;28;20105;-71
2021/09/13 05:53:52;;;;;;;23.30;11.90;;;11.70;99.90;;;;;;4196811;28;20178;-71
2021/09/13 05:55:52;;;;;;;26.13;12.80;;;11.70;99.90;;;;;;4191587;28;20036;-71
2021/09/13 05:57:53;;;;;;;27.70;13.55;;;11.80;99.90;;;;;;4195837;28;20353;-71
2021/09/13 05:59:54;;;;;;;28.05;12.48;;;11.90;99.90;;;;;;4193057;28;20036;-71
2021/09/13 06:01:54;;;;;;;27.92;12.40;;;12.00;99.90;;;;;;4194449;28;20072;-71
2021/09/13 06:03:55;;;;;;;28.08;13.27;;;12.00;99.90;;;;;;4190128;28;20045;-71
2021/09/13 06:05:56;;;;;;;29.20;12.95;;;12.10;99.90;;;;;;4195754;28;20128;-72
2021/09/13 06:07:56;;;;;;;27.33;13.20;;;12.10;99.90;;;;;;4192013;28;20041;-72
2021/09/13 06:09:57;;;;;;;25.15;13.10;;;12.10;99.90;;;;;;4196230;28;20373;-72
2021/09/13 06:11:57;;;;;;;25.10;12.63;;;12.10;99.90;;;;;;4194689;28;20418;-72
2021/09/13 06:13:58;;;;;;;29.98;11.48;;;12.10;99.90;;;;;;4196816;28;20463;-71
2021/09/13 06:15:59;;;;;;;27.95;14.05;;;12.10;99.90;;;;;;4195647;28;20056;-71
2021/09/13 06:17:59;;;;;;;27.25;12.73;;;12.10;99.90;;;;;;4196334;28;20033;-71
2021/09/13 06:20:00;;;;;;;38.28;13.75;;;12.10;99.90;;;;;;4192467;28;20032;-71
2021/09/13 06:22:03;;;;;;;25.85;13.15;;;12.10;99.90;;;;;;4195317;28;20032;-71
2021/09/13 06:24:04;;;;;;;33.88;14.15;;;12.10;99.90;;;;;;4191825;28;20564;-72
2021/09/13 06:26:05;;;;;;;36.05;14.20;;;12.20;99.90;;;;;;4192097;28;20040;-72
2021/09/13 06:28:05;;;;;;;29.55;15.45;;;12.20;99.90;;;;;;4192467;28;20115;-72
2021/09/13 06:30:06;;;;;;;33.47;15.52;;;12.30;99.90;;;;;;4194965;28;20041;-72
2021/09/13 06:32:07;;;;;;;34.92;17.17;;;12.30;99.90;;;;;;4184689;28;20072;-72
2021/09/13 06:34:08;;;;;;;27.25;14.98;;;12.30;99.90;;;;;;4184648;28;20033;-72
2021/09/13 06:36:09;;;;;;;31.65;15.35;;;12.40;99.90;;;;;;4187978;28;20052;-72
2021/09/13 06:38:10;;;;;;;34.30;17.30;;;12.40;99.90;;;;;;4188091;28;20037;-72
2021/09/13 06:40:11;;;;;;;36.03;17.10;;;12.40;99.90;;;;;;4190445;28;20040;-72
2021/09/13 06:42:11;;;;;;;34.40;15.93;;;12.50;99.90;;;;;;4182929;28;20108;-72
2021/09/13 06:44:15;;;;;;;27.83;15.32;;;12.50;99.90;;;;;;4187814;28;20041;-72
2021/09/13 06:46:24;;;;;;;36.10;15.18;;;12.60;99.90;;;;;;4187788;28;20163;-71
2021/09/13 06:48:26;;;;;;;34.15;15.07;;;12.50;99.90;;;;;;4189555;28;20040;-71
2021/09/13 06:50:28;;;;;;;28.70;15.18;;;12.60;99.90;;;;;;4188335;28;20055;-72
2021/09/13 06:52:29;;;;;;;31.70;15.68;;;12.60;99.90;;;;;;4191256;28;20404;-71
2021/09/13 06:54:29;;;;;;;32.58;14.05;;;12.60;99.90;;;;;;4190429;28;20039;-71
2021/09/13 06:56:30;;;;;;;30.27;14.68;;;12.70;99.90;;;;;;4189380;28;20483;-71
2021/09/13 06:58:34;;;;;;;32.78;15.02;;;12.80;99.90;;;;;;4182708;28;20039;-71
2021/09/13 07:00:35;;;;;;;42.28;19.33;;;12.80;99.90;;;;;;4186850;28;20033;-71
2021/09/13 07:02:43;;;;;;;28.80;16.40;;;12.90;99.90;;;;;;4191078;28;20502;-71
2021/09/13 07:04:44;;;;;;;44.20;15.98;;;13.00;99.90;;;;;;4189601;28;20032;-71
2021/09/13 07:06:44;;;;;;;31.20;16.38;;;13.20;99.90;;;;;;4190328;28;20040;-71
2021/09/13 07:08:45;;;;;;;36.28;16.02;;;13.30;99.90;;;;;;4186896;28;20547;-72
2021/09/13 07:10:46;;;;;;;31.58;15.88;;;13.50;99.90;;;;;;4190048;28;20032;-70
2021/09/13 07:12:48;;;;;;;36.17;17.85;;;13.70;99.90;;;;;;4189210;28;20044;-70
2021/09/13 07:14:49;;;;;;;36.53;17.93;;;13.90;99.90;;;;;;4191685;28;20485;-71
2021/09/13 07:16:50;;;;;;;32.28;16.85;;;14.10;99.90;;;;;;4181346;28;20280;-72
2021/09/13 07:18:50;;;;;;;31.65;16.88;;;14.30;99.90;;;;;;4186487;28;20036;-71
2021/09/13 07:20:51;;;;;;;37.42;17.67;;;14.40;99.90;;;;;;4193365;28;20496;-71
2021/09/13 07:22:51;;;;;;;32.70;16.13;;;14.50;99.90;;;;;;4191696;28;20568;-72
2021/09/13 07:24:52;;;;;;;33.28;16.70;;;14.70;99.90;;;;;;4191521;28;20071;-72
2021/09/13 07:26:53;;;;;;;37.05;19.95;;;14.80;99.90;;;;;;4186757;28;20047;-71
2021/09/13 07:28:53;;;;;;;36.97;19.15;;;14.90;99.90;;;;;;4184083;28;20113;-72
2021/09/13 07:30:54;;;;;;;41.63;19.50;;;14.90;99.90;;;;;;4192891;28;20043;-71
2021/09/13 07:32:56;;;;;;;38.92;19.50;;;15.10;99.90;;;;;;4193335;28;20364;-71
2021/09/13 07:34:57;;;;;;;40.00;19.80;;;15.10;99.90;;;;;;4194567;28;20037;-70
2021/09/13 07:36:58;;;;;;;38.15;18.27;;;15.10;99.90;;;;;;4192338;28;20032;-71
2021/09/13 07:38:59;;;;;;;39.33;19.52;;;15.10;99.90;;;;;;4188797;28;20115;-71
2021/09/13 07:40:59;;;;;;;40.28;18.33;;;15.20;99.90;;;;;;4193022;28;20040;-71
2021/09/13 07:43:00;;;;;;;33.35;18.65;;;15.30;99.90;;;;;;4187948;28;20048;-72
2021/09/13 07:45:02;;;;;;;38.28;19.52;;;15.40;99.90;;;;;;4185328;28;20037;-71
2021/09/13 07:47:02;;;;;;;36.33;18.70;;;15.50;99.90;;;;;;4192015;28;20487;-71
2021/09/13 07:49:03;;;;;;;34.83;18.92;;;15.50;99.90;;;;;;4184457;28;20021;-71
2021/09/13 07:51:04;;;;;;;28.42;16.90;;;15.60;99.90;;;;;;4188455;28;20486;-72
2021/09/13 07:53:05;;;;;;;29.85;16.75;;;15.70;99.90;;;;;;4189982;28;20036;-72
2021/09/13 07:55:06;;;;;;;36.00;18.75;;;15.80;99.90;;;;;;4192688;28;20111;-72
2021/09/13 07:57:07;;;;;;;32.40;17.92;;;16.00;99.90;;;;;;4193220;28;20110;-69
2021/09/13 07:59:08;;;;;;;30.38;17.20;;;16.10;99.90;;;;;;4193966;28;20036;-70
2021/09/13 08:01:08;;;;;;;29.67;19.10;;;16.20;99.90;;;;;;4192910;28;20090;-70
2021/09/13 08:03:09;;;;;;;28.05;16.98;;;16.40;99.90;;;;;;4193726;28;20050;-70
2021/09/13 08:05:10;;;;;;;27.38;16.77;;;16.70;99.90;;;;;;4190134;28;20174;-71
2021/09/13 08:07:11;;;;;;;32.30;18.77;;;17.10;99.90;;;;;;4193166;28;20052;-71
2021/09/13 08:09:11;;;;;;;26.55;16.23;;;17.20;99.90;;;;;;4192012;28;20055;-71
2021/09/13 08:11:12;;;;;;;28.40;16.77;;;17.40;99.90;;;;;;4192877;28;20039;-71
2021/09/13 08:13:12;;;;;;;19.60;14.40;;;17.40;99.90;;;;;;4190426;28;20029;-71
2021/09/13 08:15:13;;;;;;;21.58;14.98;;;17.50;99.90;;;;;;4192738;28;20430;-71
2021/09/13 08:17:13;;;;;;;18.48;13.20;;;17.80;99.90;;;;;;4187927;28;20033;-71
2021/09/13 08:19:14;;;;;;;22.52;12.85;;;18.10;99.90;;;;;;4187164;28;20553;-71
2021/09/13 08:21:15;;;;;;;16.75;10.85;;;18.10;99.90;;;;;;4183511;28;20073;-72
2021/09/13 08:23:16;;;;;;;15.73;10.13;;;18.10;99.90;;;;;;4189032;28;20035;-71
2021/09/13 08:25:17;;;;;;;14.25;9.02;;;18.10;99.90;;;;;;4186214;28;20044;-71
2021/09/13 08:27:17;;;;;;;12.13;9.45;;;18.20;99.90;;;;;;4186654;28;20132;-71
2021/09/13 08:29:18;;;;;;;14.40;9.60;;;18.20;99.90;;;;;;4194925;28;20098;-70
2021/09/13 08:31:19;;;;;;;11.18;8.88;;;18.40;99.90;;;;;;4194775;28;20021;-71
2021/09/13 08:33:20;;;;;;;14.18;10.18;;;18.40;99.90;;;;;;4188755;28;20033;-71
2021/09/13 08:35:20;;;;;;;16.73;10.00;;;18.50;99.90;;;;;;4189269;28;20492;-70
2021/09/13 08:37:21;;;;;;;15.20;9.90;;;18.60;99.90;;;;;;4191264;28;20106;-70
2021/09/13 08:39:22;;;;;;;14.73;8.88;;;18.80;99.90;;;;;;4187904;28;20040;-70
2021/09/13 08:41:22;;;;;;;15.52;8.45;;;18.90;99.90;;;;;;4195338;28;20085;-71
2021/09/13 08:43:23;;;;;;;13.25;7.50;;;18.80;99.90;;;;;;4196132;28;20040;-72
2021/09/13 08:46:15;;;;;;;11.23;6.82;;;18.90;99.90;;;;;;4191415;28;20389;-71
2021/09/13 08:47:58;;;;;;;8.23;6.32;;;18.90;99.90;;;;;;4186415;28;20051;-72
2021/09/13 08:50:22;;;;;;;14.68;7.05;;;19.00;99.90;;;;;;4184591;28;20580;-71
2021/09/13 08:52:23;;;;;;;9.95;7.10;;;19.00;99.90;;;;;;4188233;28;20060;-70
2021/09/13 08:54:28;;;;;;;9.60;6.65;;;19.10;99.90;;;;;;4190183;28;20048;-70
2021/09/13 08:56:37;;;;;;;9.65;6.15;;;19.00;99.90;;;;;;4189921;28;20041;-71
2021/09/13 08:58:40;;;;;;;12.35;6.13;;;18.90;99.90;;;;;;4190674;28;20043;-71
2021/09/13 09:00:44;;;;;;;9.35;7.85;;;19.10;99.90;;;;;;4189110;28;20041;-71
2021/09/13 09:02:45;;;;;;;8.30;6.25;;;19.30;99.90;;;;;;4190900;28;20028;-71
2021/09/13 09:04:46;;;;;;;8.07;5.75;;;19.50;99.90;;;;;;4192452;28;20089;-71
2021/09/13 09:06:48;;;;;;;13.13;5.80;;;19.60;99.90;;;;;;4194235;28;20127;-70
2021/09/13 09:08:58;;;;;;;7.95;6.28;;;20.00;99.90;;;;;;4190166;28;20474;-71
2021/09/13 09:11:02;;;;;;;8.35;5.55;;;20.40;99.90;;;;;;4192983;28;20032;-70
2021/09/13 09:13:11;;;;;;;10.40;4.95;;;20.50;99.90;;;;;;4187212;28;20025;-71
2021/09/13 09:15:12;;;;;;;11.43;5.50;;;20.20;99.90;;;;;;4188927;28;20082;-72
2021/09/13 09:17:21;;;;;;;6.40;4.47;;;20.20;99.90;;;;;;4187275;28;20389;-71
2021/09/13 09:19:21;;;;;;;5.80;5.13;;;20.10;99.90;;;;;;4193880;28;20038;-72
2021/09/13 09:21:25;;;;;;;8.93;4.22;;;20.10;99.90;;;;;;4186778;28;20036;-71
2021/09/13 09:23:25;;;;;;;12.07;4.47;;;20.20;99.90;;;;;;4184889;28;20037;-70
2021/09/13 09:25:28;;;;;;;6.65;3.92;;;20.40;99.90;;;;;;4185898;28;20094;-70
2021/09/13 09:27:29;;;;;;;11.13;3.92;;;20.50;99.90;;;;;;4189950;28;20732;-72
2021/09/13 09:29:33;;;;;;;7.10;4.00;;;20.60;99.90;;;;;;4192633;28;20032;-72
2021/09/13 09:31:38;;;;;;;6.15;3.25;;;20.70;99.90;;;;;;4194987;28;20503;-71
2021/09/13 09:33:39;;;;;;;4.68;3.40;;;20.80;99.90;;;;;;4187810;28;20528;-71
2021/09/13 09:35:41;;;;;;;5.90;3.88;;;20.80;99.90;;;;;;4194838;28;20041;-72
2021/09/13 09:37:42;;;;;;;4.85;4.15;;;20.80;99.90;;;;;;4201320;28;20036;-71
2021/09/13 09:39:53;;;;;;;9.73;4.15;;;20.80;99.90;;;;;;4194035;28;20024;-71
2021/09/13 09:41:56;;;;;;;5.63;3.40;;;20.80;99.90;;;;;;4188071;28;20051;-72
2021/09/13 09:44:00;;;;;;;7.10;4.13;;;20.80;99.90;;;;;;4195311;28;20163;-71
2021/09/13 09:46:10;;;;;;;5.15;3.33;;;20.80;99.90;;;;;;4188373;28;20036;-71
2021/09/13 09:48:12;;;;;;;5.10;3.20;;;20.80;99.90;;;;;;4191774;28;20098;-71
2021/09/13 09:50:26;;;;;;;5.70;3.58;;;20.90;99.90;;;;;;4189961;28;20488;-71
2021/09/13 09:52:41;;;;;;;9.55;3.97;;;21.10;99.90;;;;;;4189842;28;20055;-71
2021/09/13 09:54:43;;;;;;;5.68;3.75;;;;;;;;;;4195240;28;20093;-71
2021/09/13 09:57:05;;;;;;;6.30;3.85;;;21.80;99.90;;;;;;4188934;28;20044;-72
2021/09/13 09:59:08;;;;;;;6.78;4.00;;;22.20;99.90;;;;;;4191954;28;20025;-70
2021/09/13 10:01:09;;;;;;;5.43;3.45;;;22.50;99.90;;;;;;4191834;28;20033;-72
2021/09/13 10:03:10;;;;;;;5.38;3.33;;;22.60;99.90;;;;;;4190987;28;20614;-72
2021/09/13 10:05:11;;;;;;;4.40;3.33;;;22.60;99.90;;;;;;4191482;28;20513;-71
2021/09/13 10:07:14;;;;;;;5.22;3.25;;;22.40;99.90;;;;;;4194073;28;20387;-71
2021/09/13 10:09:15;;;;;;;3.95;2.78;;;22.40;99.90;;;;;;4206969;28;20056;-71
2021/09/13 10:11:16;;;;;;;5.57;3.10;;;22.40;99.90;;;;;;4195297;28;20417;-72
2021/09/13 10:13:21;;;;;;;5.93;3.40;;;22.40;99.90;;;;;;4191391;28;20124;-71
2021/09/13 10:15:22;;;;;;;7.43;3.55;;;22.40;99.90;;;;;;4192351;28;20035;-71
2021/09/13 10:17:22;;;;;;;5.13;3.33;;;22.20;99.90;;;;;;4190189;28;20029;-71
2021/09/13 10:19:25;;;;;;;4.88;3.30;;;22.00;99.90;;;;;;4183194;28;20029;-71
2021/09/13 10:21:25;;;;;;;7.30;3.50;;;21.70;99.90;;;;;;4191076;28;20071;-70
2021/09/13 10:23:26;;;;;;;5.78;3.33;;;21.40;99.90;;;;;;4188647;28;20033;-71
2021/09/13 10:25:32;;;;;;;4.28;3.10;;;21.40;99.90;;;;;;4190195;28;20029;-71